Ansonia, Pennsylvania
Current Conditions -  °F | °C
As of 2:15 AM on Monday 24 Nov 2014 (Local Time) from KN38 Reporting Station
Light Rain Light Rain  
Wind Chill:   Ceiling: 600
Heat Index:   Visibility: 4mi
Dew Point:   Wind: 16mph
Humidity: 100%   Direction: 160°SSE
Pressure: 29.57"   Gusts: 25mph
Location:  41.7308°N, 77.349°W
Report Text: KN38 240715Z AUTO 16014G22KT 4SM -RA OVC006 08/08 A2957 RMK AO2
Loading
Personal Weather Stations






























Interactive Weather Map New forecast layout! Learn more

10-Day Weather Forecast

Advertisements
Track Severe Weather on mobile